Vernal Regional Airport
KVEL : now visible

Airfield :











YOU CAN JOIN US ON...

 
LOGIN :

Register | Disclaimer

   EN    FR    IT 

 









Legend :    VFR   Marginal VFR   IFR   Intensive IFR   Very Intensive IFR
Visi :
Ceiling :
>= 8 km
>= 3000ft
5 to 8 km
1000 to 3000 ft
1500m to 5 km
500 to 1000 ft
800 to 1500m
200 to 500 ft
< 800m
< 200 ft
Symbols :   Thunderstorms  Fog  Heavy snow  Heavy precipitations  Wind > 20 kt







- Airport Elevation : 5278 ft


KVEL - Vernal Regional

CURRENT METAR :
  • 200053Z AUTO 26019G28KT 10SM CLR 28/01 A2987 RMK AO2 PK WND 24032/0028 SLP053 T02780011

EXPIRED METARs :
  • 192353Z AUTO 27018G29KT 10SM CLR 28/02 A2987 RMK AO2 PK WND 24030/2304 SLP058 T02780017 10294 20222 56013
  • 192253Z AUTO 23018G26KT 10SM CLR 28/02 A2988 RMK AO2 PK WND 22030/2242 SLP061 T02780022

TAF KVEL
Valid from the 20 at 00:00 until the 21 at 00:00 UTC


192330Z 2000/2024 23015G25KT P6SM FEW120
FM200400 29006KT P6SM SKC
FM201600 17005KT P6SM FEW100 SCT250
FM201900 22010G20KT P6SM FEW090 SCT250
KZLC FIR / North America



MET'MAP, your aeronautical weather chart ! - Copyright ORBIFLY December 2007 - Disclaimer

ORBIFLY MET'MAP TEAM :

Programming & Development : Alexandra Zaïnal
Concept & Development : Baudouin d'Aumeries
Co-Development & Prog : Marc-Olivier Méhu
Technical & hardware support : Manuel Goepfert

Contact : metmap@orbifly.com




SOURCES & CREDITS :

   NOAA       Earth
Advisory